OITM  Sahand  Airport

Maragheh, Iran

Add Bookmark
ICAO OITM
IATA ACP
Type Airport
Status Operational
Latitude
37° 20' 52" N
37.348000
Longitude
46° 7' 40" E
46.127899
Local (GMT +4.5 ) UTC
Aug 30, 2016 11:16 pm Aug 30, 2016 18:46
Sunrise-Sunset Local UTC
Begin Civil Twilight 06:26 am 01:56
Sunrise 06:53 am 02:23
Sunset 07:58 pm 15:28
End Civil Twilight 08:25 pm 15:55
VFR
VFR
MVFR
MVFR
IFR
IFR
LIFR
LIFR
Unknown
Unavailable

Current Weather

METAR Observed MVFR
OITM 301800Z 09004KT 8000 SCT042 27/04 Q1016 Tue, Aug 30, 2016 @ 18:00 UTC
(46 Minutes ago)
Marginal Visual Flight Rules
Wind Visibility Clouds Conditions
090° at 4 knots (7 kph) 7,998 m
  • Scattered at 4,200 ft AGL
  • No significant weather
Temperatures Readings Precipitation
Current Temp
27°C
81°F
Dewpoint
4°C
39°F
Humidity 23%
Altimeter 30" Hg
Sea Level Pressure 1,016 mb
Field Elevation
1,340 m
4,396 ft
None Recorded
-
-

CheckWX.com is intended as a tool to help pilots better visualize weather data. It is not intended as a substitute for an official weather briefing obtained from a Flight Service Station. CheckWX.com does not meet the FAA requirements for an official pre-flight weather briefing. Therefore, it's important that pilots still call and obtain an official FSS pre-flight weather briefing.

© 2007-2016 CheckWX.com
18:46:44 UTC